Time;durP1;ratioP1;P1;durP2;ratioP2;P2;SDS_P1;SDS_P2;PMS_P1;PMS_P2;Temp;Humidity;BMP_temperature;BMP_pressure;BME280_temperature;BME280_humidity;BME280_pressure;Samples;Min_cycle;Max_cycle;Signal;HPM_P1;HPM_P2
2023/06/20 00:01:48;;;;;;;19.20;13.23;;;16.50;99.90;;;;;;5057625;28;20372;-77
2023/06/20 00:04:14;;;;;;;22.50;14.80;;;16.60;99.90;;;;;;5057448;28;20383;-76
2023/06/20 00:06:40;;;;;;;19.88;14.25;;;16.60;99.90;;;;;;5075287;28;20041;-76
2023/06/20 00:09:05;;;;;;;21.38;15.00;;;16.60;99.90;;;;;;5075165;28;20037;-76
2023/06/20 00:11:31;;;;;;;23.05;15.65;;;16.60;99.90;;;;;;5057164;28;20056;-76
2023/06/20 00:13:57;;;;;;;23.42;15.82;;;16.60;99.90;;;;;;5057028;28;20040;-76
2023/06/20 00:16:24;;;;;;;25.00;17.17;;;16.70;99.90;;;;;;5075058;28;20094;-76
2023/06/20 00:18:54;;;;;;;24.88;17.15;;;16.60;99.90;;;;;;5057061;28;20131;-76
2023/06/20 00:21:25;;;;;;;24.25;16.60;;;16.60;99.90;;;;;;5056916;28;20083;-76
2023/06/20 00:23:52;;;;;;;24.98;17.42;;;16.60;99.90;;;;;;5057017;28;20055;-76
2023/06/20 00:26:18;;;;;;;23.42;16.65;;;16.70;99.90;;;;;;5056815;28;20120;-77
2023/06/20 00:28:44;;;;;;;22.27;16.40;;;16.70;99.90;;;;;;5074699;28;20484;-77
2023/06/20 00:31:09;;;;;;;21.13;15.88;;;16.70;99.90;;;;;;5074710;28;20086;-76
2023/06/20 00:33:37;;;;;;;19.75;14.55;;;16.70;99.90;;;;;;5074112;28;20032;-76
2023/06/20 00:36:03;;;;;;;20.58;13.93;;;16.70;99.90;;;;;;5056507;28;20403;-76
2023/06/20 00:38:29;;;;;;;19.17;14.70;;;16.70;99.90;;;;;;5074386;28;20483;-76
2023/06/20 00:40:58;;;;;;;22.38;15.48;;;16.70;99.90;;;;;;5074565;28;20056;-76
2023/06/20 00:43:23;;;;;;;24.70;15.68;;;16.70;99.90;;;;;;5073563;28;20118;-76
2023/06/20 00:45:50;;;;;;;19.98;14.48;;;16.70;99.90;;;;;;5074223;28;20078;-76
2023/06/20 00:48:17;;;;;;;20.98;14.35;;;16.70;99.90;;;;;;5056617;28;20052;-76
2023/06/20 00:50:44;;;;;;;19.73;15.25;;;16.70;99.90;;;;;;5056550;28;20147;-76
2023/06/20 00:53:10;;;;;;;24.33;15.93;;;16.70;99.90;;;;;;5074303;28;20051;-76
2023/06/20 00:55:36;;;;;;;21.92;16.27;;;16.70;99.90;;;;;;5056564;28;20036;-76
2023/06/20 00:58:03;;;;;;;22.45;15.70;;;16.60;99.90;;;;;;5074582;28;20106;-77
2023/06/20 01:00:32;;;;;;;20.70;15.40;;;16.60;99.90;;;;;;5056541;28;20411;-76
2023/06/20 01:03:13;;;;;;;24.40;16.80;;;16.60;99.90;;;;;;5074126;28;20135;-76
2023/06/20 01:05:41;;;;;;;24.02;15.32;;;16.60;99.90;;;;;;5074026;28;20040;-76
2023/06/20 01:08:21;;;;;;;26.40;16.15;;;16.50;99.90;;;;;;5056057;28;20045;-76
2023/06/20 01:11:09;;;;;;;23.13;14.98;;;16.50;99.90;;;;;;5073982;28;20055;-76
2023/06/20 01:14:10;;;;;;;21.90;15.35;;;16.50;99.90;;;;;;5055814;28;20051;-76
2023/06/20 01:16:59;;;;;;;24.75;16.40;;;16.50;99.90;;;;;;5038873;28;20117;-76
2023/06/20 01:19:56;;;;;;;26.15;16.88;;;16.40;99.90;;;;;;5055902;28;20090;-76
2023/06/20 01:22:28;;;;;;;21.67;14.32;;;16.40;99.90;;;;;;5073630;28;20055;-76
2023/06/20 01:25:00;;;;;;;19.50;14.50;;;16.40;99.90;;;;;;5056105;28;20083;-76
2023/06/20 01:27:40;;;;;;;21.48;14.60;;;16.40;99.90;;;;;;5055811;28;20048;-76
2023/06/20 01:30:24;;;;;;;21.17;15.27;;;16.40;99.90;;;;;;5073745;28;20064;-76
2023/06/20 01:32:54;;;;;;;23.27;15.48;;;16.40;99.90;;;;;;5073114;28;20044;-76
2023/06/20 01:35:26;;;;;;;23.77;15.52;;;16.40;99.90;;;;;;5073359;28;20114;-76
2023/06/20 01:38:00;;;;;;;23.05;16.45;;;16.40;99.90;;;;;;5073610;28;20087;-76
2023/06/20 01:40:26;;;;;;;24.73;16.48;;;16.40;99.90;;;;;;5073580;28;20056;-77
2023/06/20 01:42:57;;;;;;;25.08;17.48;;;16.50;99.90;;;;;;5055612;28;20048;-76
2023/06/20 01:45:23;;;;;;;27.83;17.77;;;16.50;99.90;;;;;;5055651;28;20052;-76
2023/06/20 01:47:50;;;;;;;28.83;18.48;;;16.50;99.90;;;;;;5055207;28;20072;-76
2023/06/20 01:50:17;;;;;;;26.80;16.75;;;16.50;99.90;;;;;;5055663;28;20135;-76
2023/06/20 01:52:49;;;;;;;28.23;19.17;;;16.50;99.90;;;;;;5055245;28;20098;-76
2023/06/20 01:55:20;;;;;;;27.27;17.98;;;16.60;99.90;;;;;;5073000;28;20369;-77
2023/06/20 01:57:48;;;;;;;25.38;18.08;;;16.50;99.90;;;;;;5055584;28;20048;-77
2023/06/20 02:00:16;;;;;;;25.13;16.52;;;16.60;99.90;;;;;;5073280;28;20049;-76
2023/06/20 02:02:43;;;;;;;24.95;16.35;;;16.60;99.90;;;;;;5073043;28;20496;-76
2023/06/20 02:05:10;;;;;;;28.08;18.50;;;16.60;99.90;;;;;;5072928;28;20040;-77
2023/06/20 02:07:38;;;;;;;25.38;16.63;;;16.60;99.90;;;;;;5055310;28;20388;-77
2023/06/20 02:10:05;;;;;;;26.67;18.63;;;16.60;99.90;;;;;;5073256;28;20141;-77
2023/06/20 02:12:32;;;;;;;30.05;17.92;;;16.70;99.90;;;;;;5055051;28;20174;-76
2023/06/20 02:14:58;;;;;;;26.38;17.27;;;16.70;99.90;;;;;;5073162;28;20090;-76
2023/06/20 02:17:26;;;;;;;29.35;18.67;;;16.70;99.90;;;;;;5055331;28;20059;-76
2023/06/20 02:19:51;;;;;;;26.48;18.20;;;16.70;99.90;;;;;;5055204;28;20137;-76
2023/06/20 02:22:19;;;;;;;26.63;17.85;;;16.70;99.90;;;;;;5055267;28;20087;-76
2023/06/20 02:24:47;;;;;;;29.42;17.95;;;16.60;99.90;;;;;;5073107;28;20036;-76
2023/06/20 02:27:14;;;;;;;23.25;16.10;;;16.70;99.90;;;;;;5054972;28;20492;-77
2023/06/20 02:29:42;;;;;;;26.63;16.17;;;16.70;99.90;;;;;;5072778;28;20115;-76
2023/06/20 02:32:16;;;;;;;23.35;14.50;;;16.70;99.90;;;;;;5054780;28;20048;-76
2023/06/20 02:34:49;;;;;;;20.92;14.80;;;16.70;99.90;;;;;;5054657;28;20057;-76
2023/06/20 02:37:15;;;;;;;19.52;13.57;;;16.70;99.90;;;;;;5054925;28;20080;-76
2023/06/20 02:39:40;;;;;;;18.65;12.63;;;16.70;99.90;;;;;;5054838;28;20125;-76
2023/06/20 02:42:06;;;;;;;19.95;13.73;;;16.70;99.90;;;;;;5055249;28;20047;-77
2023/06/20 02:44:32;;;;;;;21.33;12.35;;;16.70;99.90;;;;;;5055097;28;20045;-76
2023/06/20 02:47:00;;;;;;;16.52;12.55;;;16.70;99.90;;;;;;5054967;28;20086;-76
2023/06/20 02:49:43;;;;;;;19.75;12.23;;;16.70;99.90;;;;;;5054723;28;20510;-77
2023/06/20 02:52:09;;;;;;;;;;;16.70;99.90;;;;;;5055117;28;20052;-76
2023/06/20 02:54:42;;;;;;;14.48;10.90;;;16.70;99.90;;;;;;5054640;28;19920;-76
2023/06/20 02:57:11;;;;;;;;;;;16.70;99.90;;;;;;5073052;28;20040;-76
2023/06/20 02:59:39;;;;;;;16.83;10.05;;;16.70;99.90;;;;;;5072354;28;20451;-76
2023/06/20 03:02:07;;;;;;;15.73;11.15;;;16.70;99.90;;;;;;5054292;28;20045;-76
2023/06/20 03:04:33;;;;;;;15.10;10.70;;;16.80;99.90;;;;;;5054116;28;20128;-76
2023/06/20 03:07:01;;;;;;;16.63;10.88;;;16.70;99.90;;;;;;5055504;28;20120;-76
2023/06/20 03:09:29;;;;;;;13.98;10.13;;;16.70;99.90;;;;;;5057846;28;20092;-76
2023/06/20 03:11:55;;;;;;;15.48;9.98;;;16.80;99.90;;;;;;5075386;28;20060;-76
2023/06/20 03:14:22;;;;;;;14.60;9.65;;;16.80;99.90;;;;;;5057362;28;20057;-77
2023/06/20 03:16:48;;;;;;;14.32;10.25;;;16.70;99.90;;;;;;5056897;28;20503;-77
2023/06/20 03:19:14;;;;;;;13.90;9.07;;;16.70;99.90;;;;;;5074217;28;20040;-76
2023/06/20 03:21:40;;;;;;;16.08;9.23;;;16.80;99.90;;;;;;5074380;28;20040;-76
2023/06/20 03:24:06;;;;;;;15.13;9.82;;;16.80;99.90;;;;;;5057704;28;20051;-77
2023/06/20 03:26:33;;;;;;;13.77;9.68;;;16.80;99.90;;;;;;5057785;28;20044;-76
2023/06/20 03:28:59;;;;;;;13.75;9.85;;;16.80;99.90;;;;;;5075864;28;20098;-76
2023/06/20 03:31:26;;;;;;;15.98;10.65;;;16.80;99.90;;;;;;5075678;28;20056;-76
2023/06/20 03:33:53;;;;;;;14.80;10.07;;;16.80;99.90;;;;;;5057630;28;20052;-77
2023/06/20 03:36:19;;;;;;;14.15;10.13;;;16.80;99.90;;;;;;5075806;28;20056;-76
2023/06/20 03:38:44;;;;;;;15.10;10.32;;;16.80;99.90;;;;;;5057479;28;20052;-77
2023/06/20 03:41:10;;;;;;;15.05;10.88;;;16.80;99.90;;;;;;5075603;28;20476;-76
2023/06/20 03:43:36;;;;;;;17.90;10.63;;;16.80;99.90;;;;;;5057370;28;20059;-76
2023/06/20 03:46:01;;;;;;;15.57;9.30;;;16.90;99.90;;;;;;5075540;28;20044;-76
2023/06/20 03:48:27;;;;;;;16.95;10.15;;;17.00;99.90;;;;;;5075518;28;20127;-77
2023/06/20 03:50:53;;;;;;;16.70;9.88;;;17.00;99.90;;;;;;5057561;28;20135;-76
2023/06/20 03:53:18;;;;;;;14.02;9.95;;;17.00;99.90;;;;;;5057140;28;20044;-77
2023/06/20 03:55:44;;;;;;;13.68;9.82;;;17.00;99.90;;;;;;5057153;28;20041;-77
2023/06/20 03:58:10;;;;;;;16.33;9.85;;;17.00;99.90;;;;;;5057406;28;20048;-77
2023/06/20 04:00:35;;;;;;;14.20;9.65;;;17.00;99.90;;;;;;5057385;28;20495;-77
2023/06/20 04:03:02;;;;;;;12.90;9.50;;;17.00;99.90;;;;;;5057258;28;20048;-77
2023/06/20 04:05:28;;;;;;;15.93;10.15;;;17.10;99.90;;;;;;5057150;28;20086;-77
2023/06/20 04:07:54;;;;;;;13.75;9.00;;;17.00;99.90;;;;;;5057384;28;20076;-77
2023/06/20 04:10:19;;;;;;;12.48;8.40;;;17.00;99.90;;;;;;5057073;28;20391;-77
2023/06/20 04:12:45;;;;;;;14.23;9.15;;;17.10;99.90;;;;;;5075157;28;20044;-77
2023/06/20 04:15:11;;;;;;;11.65;8.73;;;17.10;99.90;;;;;;5057352;28;20119;-77
2023/06/20 04:17:39;;;;;;;12.85;8.30;;;17.10;99.90;;;;;;5074424;28;20057;-77
2023/06/20 04:20:11;;;;;;;11.18;7.72;;;17.20;99.90;;;;;;5074452;28;20122;-78
2023/06/20 04:22:40;;;;;;;11.48;8.48;;;17.20;99.90;;;;;;5074756;28;20130;-77
2023/06/20 04:25:07;;;;;;;13.88;9.68;;;17.20;99.90;;;;;;5074966;28;20041;-77
2023/06/20 04:27:32;;;;;;;13.20;9.13;;;17.20;99.90;;;;;;5056890;28;20488;-77
2023/06/20 04:29:58;;;;;;;12.75;8.90;;;17.30;99.90;;;;;;5056998;28;20056;-77
2023/06/20 04:32:23;;;;;;;14.65;9.70;;;17.30;99.90;;;;;;5074807;28;20049;-77
2023/06/20 04:34:52;;;;;;;15.07;9.10;;;17.40;99.90;;;;;;5074283;28;20052;-77
2023/06/20 04:37:21;;;;;;;13.43;9.48;;;17.40;99.90;;;;;;5056484;28;20052;-77
2023/06/20 04:39:47;;;;;;;14.27;10.25;;;17.50;99.90;;;;;;5056527;28;20044;-77
2023/06/20 04:42:12;;;;;;;14.85;9.48;;;17.50;99.90;;;;;;5056802;28;20049;-77
2023/06/20 04:44:38;;;;;;;13.98;10.18;;;17.50;99.90;;;;;;5056429;28;20036;-77
2023/06/20 04:47:04;;;;;;;12.82;10.10;;;17.50;99.90;;;;;;5056773;28;20070;-77
2023/06/20 04:49:29;;;;;;;15.18;10.80;;;17.50;99.90;;;;;;5074114;28;20044;-77
2023/06/20 04:51:57;;;;;;;13.30;10.43;;;17.50;99.90;;;;;;5074424;28;20051;-77
2023/06/20 04:54:24;;;;;;;13.32;10.05;;;17.60;99.90;;;;;;5074241;28;20041;-77
2023/06/20 04:56:50;;;;;;;14.57;9.27;;;17.60;99.90;;;;;;5074349;28;20127;-77
2023/06/20 04:59:16;;;;;;;12.43;9.73;;;17.60;99.90;;;;;;5074120;28;20131;-76
2023/06/20 05:01:41;;;;;;;13.23;9.35;;;17.60;99.90;;;;;;5056003;28;20048;-76
2023/06/20 05:04:07;;;;;;;16.08;11.18;;;17.60;99.90;;;;;;5056078;28;20044;-77
2023/06/20 05:06:33;;;;;;;14.60;10.18;;;17.70;99.90;;;;;;5074280;28;20060;-76
2023/06/20 05:08:59;;;;;;;19.17;11.73;;;17.70;99.90;;;;;;5056313;28;20048;-77
2023/06/20 05:11:26;;;;;;;15.88;10.77;;;17.70;99.90;;;;;;5055849;28;20080;-76
2023/06/20 05:13:51;;;;;;;15.88;11.63;;;17.80;99.90;;;;;;5073962;28;20051;-76
2023/06/20 05:16:17;;;;;;;15.75;12.32;;;17.70;99.90;;;;;;5073741;28;20044;-76
2023/06/20 05:18:44;;;;;;;15.68;11.38;;;17.70;99.90;;;;;;5056307;28;20043;-78
2023/06/20 05:21:10;;;;;;;14.32;11.52;;;17.80;99.90;;;;;;5073590;28;20055;-77
2023/06/20 05:23:35;;;;;;;15.45;11.90;;;17.80;99.90;;;;;;5055954;28;20044;-78
2023/06/20 05:26:02;;;;;;;17.02;12.32;;;17.80;99.90;;;;;;5073478;28;20090;-78
2023/06/20 05:28:27;;;;;;;17.05;11.68;;;17.90;99.90;;;;;;5073573;28;20119;-78
2023/06/20 05:30:53;;;;;;;15.70;11.43;;;18.00;99.90;;;;;;5073435;28;20457;-78
2023/06/20 05:33:18;;;;;;;16.50;12.15;;;18.00;99.90;;;;;;5055339;28;20492;-78
2023/06/20 05:35:46;;;;;;;15.27;11.88;;;18.00;99.90;;;;;;5051983;28;20056;-78
2023/06/20 05:38:12;;;;;;;18.42;12.68;;;18.00;99.90;;;;;;5053425;28;20095;-78
2023/06/20 05:40:38;;;;;;;16.17;11.15;;;18.00;99.90;;;;;;5052216;28;20052;-78
2023/06/20 05:43:04;;;;;;;16.17;11.60;;;18.00;99.90;;;;;;5052152;28;20408;-78
2023/06/20 05:45:29;;;;;;;15.88;11.38;;;18.00;99.90;;;;;;5053525;28;20132;-78
2023/06/20 05:47:55;;;;;;;15.85;11.32;;;18.00;99.90;;;;;;5051843;28;20124;-78
2023/06/20 05:50:21;;;;;;;13.75;10.57;;;18.10;99.90;;;;;;5051982;28;20136;-78
2023/06/20 05:52:46;;;;;;;15.73;10.18;;;18.10;99.90;;;;;;5051722;28;20124;-78
2023/06/20 05:55:12;;;;;;;16.38;10.48;;;18.10;99.90;;;;;;5052010;28;20049;-78
2023/06/20 05:57:38;;;;;;;14.02;9.93;;;18.10;99.90;;;;;;5051996;28;20055;-78
2023/06/20 06:00:11;;;;;;;14.35;10.27;;;18.10;99.90;;;;;;5052234;28;20071;-78
2023/06/20 06:02:37;;;;;;;16.15;9.88;;;18.10;99.90;;;;;;5052245;28;20047;-78
2023/06/20 06:05:03;;;;;;;15.07;9.50;;;18.10;99.90;;;;;;5052123;28;20439;-78
2023/06/20 06:07:30;;;;;;;12.52;9.77;;;18.10;99.90;;;;;;5053043;28;20045;-78
2023/06/20 06:09:56;;;;;;;13.82;10.50;;;18.10;99.90;;;;;;5051763;28;20041;-78
2023/06/20 06:12:22;;;;;;;13.38;10.60;;;18.20;99.90;;;;;;5051797;28;20139;-78
2023/06/20 06:14:47;;;;;;;17.85;11.20;;;18.20;99.90;;;;;;5052974;28;20041;-78
2023/06/20 06:17:13;;;;;;;15.30;11.32;;;18.20;99.90;;;;;;5051845;28;20122;-78
2023/06/20 06:19:39;;;;;;;13.40;10.23;;;18.30;99.90;;;;;;5052609;28;20052;-78
2023/06/20 06:22:05;;;;;;;14.35;10.13;;;18.40;99.90;;;;;;5053155;28;20362;-78
2023/06/20 06:24:31;;;;;;;12.40;9.77;;;18.40;99.90;;;;;;5051967;28;20428;-78
2023/06/20 06:26:57;;;;;;;14.25;10.93;;;18.50;99.90;;;;;;5051898;28;20382;-78
2023/06/20 06:29:22;;;;;;;14.98;10.70;;;18.60;99.90;;;;;;5051930;28;20058;-78
2023/06/20 06:31:48;;;;;;;15.98;10.05;;;18.70;99.90;;;;;;5051607;28;20453;-77
2023/06/20 06:34:18;;;;;;;15.50;9.35;;;18.80;99.90;;;;;;5051458;28;20119;-76
2023/06/20 06:36:49;;;;;;;14.55;10.45;;;18.80;99.90;;;;;;5051989;28;20041;-77
2023/06/20 06:39:17;;;;;;;15.70;10.27;;;18.90;99.90;;;;;;5052173;28;20048;-77
2023/06/20 06:41:51;;;;;;;15.13;9.88;;;19.00;99.90;;;;;;5053981;28;20044;-77
2023/06/20 06:44:17;;;;;;;14.10;10.20;;;19.20;99.90;;;;;;5055985;28;20045;-76
2023/06/20 06:46:43;;;;;;;13.43;9.82;;;19.20;99.90;;;;;;5055516;28;20045;-76
2023/06/20 06:49:09;;;;;;;12.43;9.45;;;19.30;99.90;;;;;;5055547;28;20397;-76
2023/06/20 06:51:37;;;;;;;13.13;9.18;;;19.40;99.90;;;;;;5055553;28;20464;-77
2023/06/20 06:54:05;;;;;;;13.85;9.15;;;19.50;99.90;;;;;;5056752;28;20148;-76
2023/06/20 06:56:31;;;;;;;13.18;9.20;;;19.50;99.90;;;;;;5055487;28;20102;-76
2023/06/20 06:59:00;;;;;;;11.60;8.90;;;19.50;99.90;;;;;;5055375;28;20041;-76
2023/06/20 07:01:28;;;;;;;11.52;8.73;;;19.60;99.90;;;;;;5054944;28;20053;-76
2023/06/20 07:03:54;;;;;;;11.35;9.27;;;19.70;99.90;;;;;;5054966;28;20541;-75
2023/06/20 07:06:20;;;;;;;11.73;8.43;;;19.80;99.90;;;;;;5055122;28;20045;-77
2023/06/20 07:08:46;;;;;;;14.38;9.48;;;19.80;99.90;;;;;;5055052;28;20045;-75
2023/06/20 07:11:11;;;;;;;11.00;8.38;;;19.80;99.90;;;;;;5054910;28;20041;-75
2023/06/20 07:13:37;;;;;;;15.63;9.88;;;19.80;99.90;;;;;;5054932;28;20068;-78
2023/06/20 07:16:03;;;;;;;15.25;10.38;;;19.90;99.90;;;;;;5055080;28;20126;-75
2023/06/20 07:18:29;;;;;;;14.98;9.63;;;19.90;99.90;;;;;;5056178;28;20049;-78
2023/06/20 07:20:57;;;;;;;13.02;10.57;;;20.00;99.90;;;;;;5055087;28;20041;-76
2023/06/20 07:23:23;;;;;;;13.20;10.32;;;20.10;99.90;;;;;;5055485;28;20053;-76
2023/06/20 07:25:49;;;;;;;12.77;10.05;;;20.20;99.90;;;;;;5054797;28;20040;-77
2023/06/20 07:28:14;;;;;;;15.25;10.30;;;20.30;99.90;;;;;;5054946;28;20048;-75
2023/06/20 07:30:40;;;;;;;12.70;10.23;;;20.50;99.90;;;;;;5054745;28;20447;-74
2023/06/20 07:33:06;;;;;;;15.25;9.77;;;20.60;99.90;;;;;;5054551;28;20129;-78
2023/06/20 07:35:32;;;;;;;16.13;10.98;;;20.70;99.90;;;;;;5054506;28;20064;-75
2023/06/20 07:37:58;;;;;;;14.90;10.38;;;20.70;99.90;;;;;;5054816;28;20081;-75
2023/06/20 07:40:24;;;;;;;19.23;10.90;;;20.80;99.90;;;;;;5054507;28;20079;-75
2023/06/20 07:42:49;;;;;;;12.73;10.13;;;20.90;99.90;;;;;;5055781;28;20106;-75
2023/06/20 07:45:15;;;;;;;14.50;10.55;;;20.90;99.90;;;;;;5054391;28;20056;-75
2023/06/20 07:47:41;;;;;;;13.63;10.95;;;20.90;99.90;;;;;;5055602;28;20045;-75
2023/06/20 07:50:07;;;;;;;15.88;10.80;;;20.90;99.90;;;;;;5054384;28;20076;-75
2023/06/20 07:52:33;;;;;;;13.52;10.55;;;20.90;99.90;;;;;;5054057;28;20088;-75
2023/06/20 07:55:01;;;;;;;15.25;12.50;;;21.00;99.90;;;;;;5054132;28;20080;-75
2023/06/20 07:57:27;;;;;;;15.82;12.30;;;21.00;99.90;;;;;;5054243;28;20045;-75
2023/06/20 07:59:52;;;;;;;13.73;11.32;;;21.00;99.90;;;;;;5054164;28;20420;-75
2023/06/20 08:02:21;;;;;;;16.90;11.85;;;21.00;99.90;;;;;;5055229;28;20500;-77
2023/06/20 08:04:47;;;;;;;17.92;12.80;;;21.10;99.90;;;;;;5054431;28;20076;-75
2023/06/20 08:07:14;;;;;;;17.70;12.90;;;21.10;99.90;;;;;;5055583;28;20041;-77
2023/06/20 08:09:39;;;;;;;16.98;12.10;;;21.20;99.90;;;;;;5054270;28;20056;-78
2023/06/20 08:12:05;;;;;;;15.57;12.60;;;21.20;99.90;;;;;;5053992;28;20045;-76
2023/06/20 08:14:31;;;;;;;22.73;13.20;;;21.20;99.90;;;;;;5053828;28;20059;-75
2023/06/20 08:16:57;;;;;;;26.23;14.30;;;21.10;99.90;;;;;;5055065;28;20111;-76
2023/06/20 08:19:22;;;;;;;25.65;13.05;;;21.10;99.90;;;;;;5053925;28;20045;-77
2023/06/20 08:21:48;;;;;;;17.90;13.00;;;21.20;99.90;;;;;;5054047;28;20091;-76
2023/06/20 08:24:13;;;;;;;18.38;13.35;;;21.20;99.90;;;;;;5053639;28;20041;-77
2023/06/20 08:26:39;;;;;;;21.75;13.13;;;21.30;99.90;;;;;;5053777;28;20060;-77
2023/06/20 08:29:08;;;;;;;19.02;13.90;;;21.30;99.90;;;;;;5053649;28;20487;-77
2023/06/20 08:31:36;;;;;;;19.67;13.93;;;21.30;99.90;;;;;;5054751;28;20389;-77
2023/06/20 08:34:05;;;;;;;16.98;14.18;;;21.40;99.90;;;;;;5053430;28;20100;-76
2023/06/20 08:36:32;;;;;;;17.02;13.20;;;21.40;99.90;;;;;;5054982;28;20059;-77
2023/06/20 08:38:59;;;;;;;18.80;14.77;;;21.40;99.90;;;;;;5053448;28;20496;-77
2023/06/20 08:41:25;;;;;;;17.90;13.52;;;21.50;99.90;;;;;;5053934;28;20057;-77
2023/06/20 08:43:52;;;;;;;18.92;14.27;;;21.70;99.90;;;;;;5054891;28;20072;-77
2023/06/20 08:46:18;;;;;;;18.75;13.68;;;21.60;99.90;;;;;;5054518;28;20424;-77
2023/06/20 08:48:44;;;;;;;17.65;14.68;;;21.70;99.90;;;;;;5053059;28;20531;-76
2023/06/20 08:51:16;;;;;;;22.10;15.77;;;21.80;99.90;;;;;;5054400;28;20041;-76
2023/06/20 08:53:49;;;;;;;19.27;13.98;;;21.80;99.90;;;;;;5053177;28;20052;-77
2023/06/20 08:56:17;;;;;;;21.65;14.75;;;21.80;99.90;;;;;;5053436;28;20114;-77
2023/06/20 08:58:42;;;;;;;20.70;14.40;;;22.00;99.90;;;;;;5054337;28;20144;-76
2023/06/20 09:01:08;;;;;;;20.23;15.77;;;22.00;99.90;;;;;;5053192;28;20052;-77
2023/06/20 09:03:35;;;;;;;18.02;14.73;;;22.10;99.90;;;;;;5054317;28;20052;-77
2023/06/20 09:06:01;;;;;;;20.13;14.55;;;22.20;99.90;;;;;;5052578;28;20049;-76
2023/06/20 09:08:39;;;;;;;16.77;14.10;;;22.20;99.90;;;;;;5052928;28;20128;-77
2023/06/20 09:11:14;;;;;;;19.02;14.43;;;22.30;99.90;;;;;;5054472;28;20480;-77
2023/06/20 09:13:41;;;;;;;16.30;14.32;;;22.30;99.90;;;;;;5052713;28;20105;-75
2023/06/20 09:16:11;;;;;;;19.02;13.63;;;22.40;99.90;;;;;;5052702;28;20048;-78
2023/06/20 09:18:40;;;;;;;17.65;12.75;;;22.40;99.90;;;;;;5052991;28;20059;-86
2023/06/20 09:21:06;;;;;;;20.25;13.63;;;22.60;99.90;;;;;;5052672;28;20404;-77
2023/06/20 09:23:33;;;;;;;16.92;13.30;;;22.60;99.90;;;;;;5052528;28;20052;-77
2023/06/20 09:26:16;;;;;;;15.55;13.25;;;22.60;99.90;;;;;;5052824;28;20049;-77
2023/06/20 09:28:42;;;;;;;21.55;14.27;;;22.70;99.90;;;;;;5052673;28;20473;-77
2023/06/20 09:31:08;;;;;;;17.50;13.25;;;22.80;99.90;;;;;;5053793;28;20096;-76
2023/06/20 09:33:37;;;;;;;16.80;12.95;;;22.80;99.90;;;;;;5055003;28;20065;-78
2023/06/20 09:36:17;;;;;;;16.55;12.32;;;22.90;99.90;;;;;;5056021;28;20157;-76
2023/06/20 09:38:52;;;;;;;14.60;12.52;;;23.10;99.90;;;;;;5073504;28;20385;-75
2023/06/20 09:41:17;;;;;;;16.88;12.85;;;23.20;99.90;;;;;;5055639;28;20048;-75
2023/06/20 09:43:44;;;;;;;17.70;12.70;;;23.30;99.90;;;;;;5055532;28;20066;-76
2023/06/20 09:46:10;;;;;;;13.40;11.35;;;23.40;99.90;;;;;;5073639;28;20037;-74
2023/06/20 09:48:39;;;;;;;12.20;10.90;;;23.50;99.90;;;;;;5072435;28;20048;-75
2023/06/20 09:51:06;;;;;;;16.73;11.93;;;23.60;99.90;;;;;;5073456;28;20055;-74
2023/06/20 09:53:55;;;;;;;15.80;12.82;;;23.70;99.90;;;;;;5055627;28;20048;-76
2023/06/20 09:56:22;;;;;;;13.38;11.20;;;23.60;99.90;;;;;;5073767;28;20040;-75
2023/06/20 09:58:48;;;;;;;16.88;12.52;;;23.70;99.90;;;;;;5055416;28;20528;-76
2023/06/20 10:01:15;;;;;;;17.30;12.45;;;23.60;99.90;;;;;;5073640;28;20055;-76
2023/06/20 10:03:41;;;;;;;15.02;12.32;;;23.60;99.90;;;;;;5073593;28;20090;-75
2023/06/20 10:06:09;;;;;;;13.85;12.13;;;23.60;99.90;;;;;;5055376;28;20083;-75
2023/06/20 10:08:35;;;;;;;14.88;12.80;;;23.70;99.90;;;;;;5055501;28;20433;-75
2023/06/20 10:11:01;;;;;;;13.23;11.38;;;23.80;99.90;;;;;;5055196;28;20048;-75
2023/06/20 10:13:28;;;;;;;12.10;10.90;;;24.00;99.90;;;;;;5055442;28;20037;-76
2023/06/20 10:15:54;;;;;;;10.63;9.35;;;24.10;99.90;;;;;;5056358;28;20045;-77
2023/06/20 10:18:36;;;;;;;14.32;11.27;;;24.40;99.90;;;;;;5059419;28;20049;-76
2023/06/20 10:21:05;;;;;;;16.33;11.25;;;24.80;99.90;;;;;;5059255;28;20048;-77
2023/06/20 10:23:32;;;;;;;13.52;11.90;;;25.00;99.90;;;;;;5077441;28;20063;-76
2023/06/20 10:26:00;;;;;;;19.15;11.52;;;25.30;99.90;;;;;;5059187;28;20048;-76
2023/06/20 10:28:26;;;;;;;13.63;10.32;;;25.40;99.90;;;;;;5077260;28;20053;-95
2023/06/20 10:30:58;;;;;;;13.43;9.95;;;25.60;99.90;;;;;;5060573;28;20114;-93
2023/06/20 10:33:26;;;;;;;13.88;10.25;;;26.00;99.90;;;;;;5059228;28;20084;-95
2023/06/20 10:35:55;;;;;;;12.98;11.40;;;26.20;99.90;;;;;;5060117;28;20051;-86
2023/06/20 10:38:21;;;;;;;11.60;10.40;;;26.20;99.90;;;;;;5058990;28;20131;-86
2023/06/20 10:41:04;;;;;;;12.50;10.13;;;26.50;99.90;;;;;;5059248;28;20125;-89
2023/06/20 10:43:30;;;;;;;13.38;10.13;;;26.40;99.90;;;;;;5077561;28;20048;-88
2023/06/20 10:45:59;;;;;;;12.18;10.88;;;26.70;99.90;;;;;;5076954;28;20055;-76
2023/06/20 10:48:26;;;;;;;13.45;12.00;;;26.60;99.90;;;;;;5076660;28;20045;-77
2023/06/20 10:51:01;;;;;;;12.80;11.32;;;26.70;99.90;;;;;;5058778;28;20048;-77
2023/06/20 10:53:30;;;;;;;15.75;11.73;;;26.80;99.90;;;;;;5043085;28;20033;-79
2023/06/20 10:55:56;;;;;;;13.10;11.48;;;26.70;99.90;;;;;;5054387;28;20052;-79
2023/06/20 10:58:21;;;;;;;13.63;10.77;;;26.80;99.90;;;;;;5071717;28;20071;-79
2023/06/20 11:00:50;;;;;;;14.35;11.93;;;26.80;99.90;;;;;;5054193;28;20052;-78
2023/06/20 11:03:17;;;;;;;13.50;11.60;;;27.00;99.90;;;;;;5054994;28;20048;-80
2023/06/20 11:05:48;;;;;;;13.05;11.27;;;27.00;99.90;;;;;;5054070;28;20059;-80
2023/06/20 11:08:25;;;;;;;16.77;11.63;;;27.20;99.90;;;;;;5053793;28;20036;-80
2023/06/20 11:10:51;;;;;;;15.52;10.98;;;26.80;99.90;;;;;;5072100;28;20436;-80
2023/06/20 11:13:17;;;;;;;12.80;10.30;;;26.90;99.90;;;;;;5071690;28;20044;-79
2023/06/20 11:15:42;;;;;;;14.05;10.48;;;27.30;99.90;;;;;;5054452;28;20478;-80
2023/06/20 11:18:09;;;;;;;10.07;7.30;;;27.50;99.90;;;;;;5053059;28;20050;-78
2023/06/20 11:20:39;;;;;;;10.88;7.93;;;27.60;99.90;;;;;;5053688;28;20531;-80
2023/06/20 11:23:07;;;;;;;10.65;8.00;;;27.90;99.90;;;;;;5054248;28;20124;-77
2023/06/20 11:25:35;;;;;;;9.80;7.68;;;27.90;99.90;;;;;;5071371;28;20166;-77
2023/06/20 11:28:11;;;;;;;7.82;6.95;;;27.60;99.90;;;;;;5052734;28;20044;-77
2023/06/20 11:30:42;;;;;;;8.02;7.18;;;27.90;99.90;;;;;;5071461;28;20036;-77
2023/06/20 11:33:09;;;;;;;8.27;7.03;;;27.90;99.90;;;;;;5053608;28;20530;-79
2023/06/20 11:35:42;;;;;;;14.07;8.35;;;27.90;99.90;;;;;;5053807;28;20068;-78
2023/06/20 11:38:11;;;;;;;10.65;7.65;;;28.00;99.90;;;;;;5053753;28;20467;-78
2023/06/20 11:40:37;;;;;;;9.18;7.72;;;28.10;99.90;;;;;;5049832;28;20467;-80
2023/06/20 11:43:04;;;;;;;11.65;10.48;;;28.10;99.90;;;;;;5050260;28;20053;-78
2023/06/20 11:45:29;;;;;;;10.60;8.73;;;28.10;99.90;;;;;;5051791;28;20048;-79
2023/06/20 11:48:12;;;;;;;16.83;11.77;;;28.30;99.90;;;;;;5049488;28;20041;-79
2023/06/20 11:50:41;;;;;;;15.68;11.40;;;28.40;99.90;;;;;;5049930;28;20099;-80
2023/06/20 11:53:17;;;;;;;16.42;12.13;;;28.40;99.90;;;;;;5049794;28;20047;-79
2023/06/20 11:55:50;;;;;;;17.88;14.15;;;27.80;99.90;;;;;;5050783;28;20045;-77
2023/06/20 11:58:16;;;;;;;15.13;12.90;;;27.50;99.90;;;;;;5060458;28;20048;-78
2023/06/20 12:00:47;;;;;;;15.23;12.93;;;27.30;99.90;;;;;;5053497;28;20044;-78
2023/06/20 12:03:18;;;;;;;18.50;12.77;;;27.00;99.90;;;;;;5055113;28;20045;-85
2023/06/20 12:05:44;;;;;;;17.42;12.27;;;26.60;99.90;;;;;;5056441;28;20048;-77
2023/06/20 12:08:10;;;;;;;15.63;12.18;;;26.80;99.90;;;;;;5075150;28;20044;-77
2023/06/20 12:10:39;;;;;;;14.23;12.65;;;26.80;99.90;;;;;;5075521;28;20048;-78
2023/06/20 12:13:05;;;;;;;15.05;12.80;;;26.70;99.90;;;;;;5057269;28;20040;-76
2023/06/20 12:15:31;;;;;;;15.73;11.77;;;26.80;99.90;;;;;;5057292;28;20071;-78
2023/06/20 12:17:57;;;;;;;12.38;9.75;;;26.90;99.90;;;;;;5075286;28;20404;-77
2023/06/20 12:20:22;;;;;;;10.13;7.20;;;27.20;99.90;;;;;;5075113;28;20484;-78
2023/06/20 12:22:48;;;;;;;9.05;7.30;;;27.50;99.90;;;;;;5056983;28;20442;-77
2023/06/20 12:25:14;;;;;;;15.80;7.50;;;27.70;99.90;;;;;;5057247;28;20238;-77
2023/06/20 12:27:40;;;;;;;10.43;7.25;;;28.00;99.90;;;;;;5057097;28;20521;-77
2023/06/20 12:30:08;;;;;;;10.93;7.15;;;28.30;99.90;;;;;;5074691;28;20538;-76
2023/06/20 12:32:34;;;;;;;12.43;7.70;;;28.50;99.90;;;;;;5074671;28;20500;-76
2023/06/20 12:34:59;;;;;;;8.75;7.25;;;28.50;99.90;;;;;;5074515;28;20055;-76